Time;durP1;ratioP1;P1;durP2;ratioP2;P2;SDS_P1;SDS_P2;PMS_P1;PMS_P2;Temp;Humidity;BMP_temperature;BMP_pressure;BME280_temperature;BME280_humidity;BME280_pressure;Samples;Min_cycle;Max_cycle;Signal;HPM_P1;HPM_P2
2024/02/05 00:01:37;;;;;;;42.53;7.50;;;10.40;99.90;;;;;;5020594;28;20041;-63
2024/02/05 00:04:04;;;;;;;38.53;8.55;;;10.40;99.90;;;;;;5024076;28;20051;-63
2024/02/05 00:06:35;;;;;;;42.22;8.48;;;10.40;99.90;;;;;;5023745;28;20099;-63
2024/02/05 00:09:05;;;;;;;32.67;7.13;;;10.50;99.90;;;;;;5006261;28;20386;-63
2024/02/05 00:11:30;;;;;;;35.75;6.78;;;10.50;99.90;;;;;;5026334;28;20060;-63
2024/02/05 00:13:57;;;;;;;42.97;8.52;;;10.40;99.90;;;;;;5007158;28;20037;-63
2024/02/05 00:16:22;;;;;;;43.25;8.80;;;10.40;99.90;;;;;;5023849;28;20045;-64
2024/02/05 00:18:48;;;;;;;37.47;7.47;;;10.40;99.90;;;;;;5024029;28;20468;-63
2024/02/05 00:21:14;;;;;;;35.53;7.07;;;10.50;99.90;;;;;;5026289;28;20395;-63
2024/02/05 00:23:40;;;;;;;32.40;6.45;;;10.50;99.90;;;;;;5026390;28;20513;-63
2024/02/05 00:26:05;;;;;;;27.90;4.72;;;10.40;99.90;;;;;;5023799;28;20406;-63
2024/02/05 00:28:31;;;;;;;37.92;7.18;;;10.40;99.90;;;;;;5029188;28;20493;-64
2024/02/05 00:30:57;;;;;;;34.53;6.20;;;10.40;99.90;;;;;;5006498;28;20034;-63
2024/02/05 00:33:23;;;;;;;10.77;2.55;;;10.40;99.90;;;;;;5005980;28;20065;-64
2024/02/05 00:35:48;;;;;;;48.67;8.82;;;10.40;99.90;;;;;;5024683;28;20152;-63
2024/02/05 00:38:15;;;;;;;36.35;6.32;;;10.40;99.90;;;;;;5027729;28;20037;-64
2024/02/05 00:40:41;;;;;;;44.97;7.70;;;10.40;99.90;;;;;;5035543;28;20130;-63
2024/02/05 00:43:08;;;;;;;25.60;6.47;;;10.40;99.90;;;;;;5027296;28;20408;-63
2024/02/05 00:45:35;;;;;;;33.03;6.68;;;10.40;99.90;;;;;;5012583;28;20458;-64
2024/02/05 00:48:01;;;;;;;44.92;8.35;;;10.40;99.90;;;;;;5025354;28;20056;-63
2024/02/05 00:50:26;;;;;;;35.75;7.68;;;10.40;99.90;;;;;;5032502;28;20041;-63
2024/02/05 00:52:52;;;;;;;39.22;8.70;;;10.40;99.90;;;;;;5023376;28;20045;-63
2024/02/05 00:55:18;;;;;;;45.72;8.98;;;10.40;99.90;;;;;;5031272;28;20048;-63
2024/02/05 00:57:44;;;;;;;41.65;8.85;;;10.40;99.90;;;;;;4997465;28;20069;-63
2024/02/05 01:00:11;;;;;;;25.20;5.53;;;10.40;99.90;;;;;;5022762;28;20041;-63
2024/02/05 01:02:39;;;;;;;27.13;5.40;;;10.40;99.90;;;;;;5024703;28;20056;-63
2024/02/05 01:05:06;;;;;;;40.67;8.18;;;10.50;99.90;;;;;;5018390;28;20083;-64
2024/02/05 01:07:32;;;;;;;40.97;5.15;;;10.50;99.90;;;;;;5003183;28;20922;-63
2024/02/05 01:09:58;;;;;;;41.00;8.73;;;10.50;99.90;;;;;;5024211;28;20056;-63
2024/02/05 01:12:24;;;;;;;34.45;7.07;;;10.50;99.90;;;;;;5024177;28;20053;-63
2024/02/05 01:14:50;;;;;;;21.60;5.30;;;10.50;99.90;;;;;;5026750;28;20033;-63
2024/02/05 01:17:19;;;;;;;45.58;9.57;;;10.60;99.90;;;;;;5021865;28;20053;-63
2024/02/05 01:19:48;;;;;;;48.67;9.55;;;10.50;99.90;;;;;;5026161;28;20040;-63
2024/02/05 01:22:14;;;;;;;40.60;6.80;;;10.50;99.90;;;;;;5020384;28;20038;-63
2024/02/05 01:24:39;;;;;;;43.33;7.63;;;10.40;99.90;;;;;;5031941;28;20068;-63
2024/02/05 01:27:05;;;;;;;18.08;4.32;;;10.40;99.90;;;;;;5003934;28;20964;-63
2024/02/05 01:29:31;;;;;;;44.65;9.40;;;10.30;99.90;;;;;;5037886;28;20071;-63
2024/02/05 01:31:57;;;;;;;58.28;9.73;;;10.40;99.90;;;;;;5031888;28;20495;-63
2024/02/05 01:34:22;;;;;;;32.78;6.43;;;10.40;99.90;;;;;;5028869;28;20063;-63
2024/02/05 01:36:48;;;;;;;29.13;6.40;;;10.40;99.90;;;;;;5007806;28;20071;-63
2024/02/05 01:39:15;;;;;;;33.55;5.85;;;10.40;99.90;;;;;;5006649;28;20059;-64
2024/02/05 01:41:41;;;;;;;32.08;7.50;;;10.40;99.90;;;;;;5009759;28;20085;-63
2024/02/05 01:44:07;;;;;;;19.42;4.63;;;10.50;99.90;;;;;;5028538;28;20084;-63
2024/02/05 01:46:36;;;;;;;41.03;8.18;;;10.40;99.90;;;;;;5006461;28;20970;-63
2024/02/05 01:49:06;;;;;;;45.05;7.78;;;10.50;99.90;;;;;;5020165;28;20569;-63
2024/02/05 01:51:34;;;;;;;;;;;10.40;99.90;;;;;;5024009;28;20277;-63
2024/02/05 01:54:00;;;;;;;43.10;6.72;;;10.40;99.90;;;;;;5024003;28;19928;-63
2024/02/05 01:56:32;;;;;;;44.65;9.73;;;10.40;99.90;;;;;;5006533;28;20057;-63
2024/02/05 01:59:03;;;;;;;54.13;10.20;;;10.40;99.90;;;;;;5009952;28;20050;-63
2024/02/05 02:01:29;;;;;;;;;;;10.40;99.90;;;;;;5007585;28;20407;-63
2024/02/05 02:03:57;;;;;;;29.92;4.80;;;10.40;99.90;;;;;;5026542;28;19936;-63
2024/02/05 02:06:24;;;;;;;40.60;8.07;;;10.40;99.90;;;;;;5004319;28;20586;-63
2024/02/05 02:08:50;;;;;;;32.85;6.35;;;10.40;99.90;;;;;;5033397;28;20572;-63
2024/02/05 02:11:16;;;;;;;30.75;6.13;;;10.40;99.90;;;;;;5035713;28;20111;-63
2024/02/05 02:13:43;;;;;;;31.13;6.18;;;10.40;99.90;;;;;;5027492;28;20032;-63
2024/02/05 02:16:16;;;;;;;39.50;7.03;;;10.40;99.90;;;;;;5025704;28;20060;-63
2024/02/05 02:18:45;;;;;;;32.72;4.75;;;10.40;99.90;;;;;;5024263;28;20559;-63
2024/02/05 02:21:15;;;;;;;26.63;5.65;;;10.40;99.90;;;;;;5029893;28;20662;-63
2024/02/05 02:23:43;;;;;;;21.48;3.97;;;10.40;99.90;;;;;;5017035;28;20045;-63
2024/02/05 02:26:09;;;;;;;42.00;7.88;;;10.40;99.90;;;;;;5027566;28;20159;-63
2024/02/05 02:28:36;;;;;;;50.22;9.38;;;10.40;99.90;;;;;;5017615;28;20045;-63
2024/02/05 02:31:02;;;;;;;18.88;3.85;;;10.40;99.90;;;;;;5022616;28;20392;-63
2024/02/05 02:33:50;;;;;;;37.60;6.47;;;10.30;99.90;;;;;;5026008;28;20141;-63
2024/02/05 02:36:22;;;;;;;45.13;8.40;;;10.40;99.90;;;;;;5021689;28;20085;-63
2024/02/05 02:39:03;;;;;;;20.73;3.90;;;10.40;99.90;;;;;;5023439;28;20041;-63
2024/02/05 02:41:35;;;;;;;23.88;4.85;;;10.30;99.90;;;;;;5022351;28;20103;-64
2024/02/05 02:44:01;;;;;;;29.15;6.05;;;10.40;99.90;;;;;;5020507;28;20076;-63
2024/02/05 02:46:29;;;;;;;36.83;6.60;;;10.30;99.90;;;;;;5036027;28;20134;-63
2024/02/05 02:48:55;;;;;;;22.95;2.92;;;10.30;99.90;;;;;;5012860;28;20555;-63
2024/02/05 02:51:22;;;;;;;43.10;8.98;;;10.40;99.90;;;;;;5029560;28;20049;-63
2024/02/05 02:53:48;;;;;;;44.00;7.10;;;10.40;99.90;;;;;;5006995;28;20048;-63
2024/02/05 02:56:14;;;;;;;32.08;5.90;;;10.40;99.90;;;;;;5005977;28;20080;-63
2024/02/05 02:58:40;;;;;;;37.63;6.50;;;10.40;99.90;;;;;;5014802;28;20484;-63
2024/02/05 03:01:07;;;;;;;32.20;6.18;;;10.40;99.90;;;;;;4988747;28;20053;-63
2024/02/05 03:03:32;;;;;;;30.00;6.07;;;10.30;99.90;;;;;;4988290;28;20049;-63
2024/02/05 03:05:58;;;;;;;41.58;8.77;;;10.30;99.90;;;;;;5018296;28;20045;-63
2024/02/05 03:08:24;;;;;;;36.00;7.30;;;10.30;99.90;;;;;;5017889;28;20053;-63
2024/02/05 03:10:50;;;;;;;48.75;6.72;;;10.30;99.90;;;;;;5025096;28;20059;-63
2024/02/05 03:13:17;;;;;;;40.92;8.88;;;10.30;99.90;;;;;;5022715;28;20037;-63
2024/02/05 03:15:42;;;;;;;34.13;5.88;;;10.30;99.90;;;;;;5027747;28;20044;-63
2024/02/05 03:18:09;;;;;;;14.32;2.85;;;10.30;99.90;;;;;;5022012;28;20745;-63
2024/02/05 03:20:40;;;;;;;32.58;5.85;;;10.30;99.90;;;;;;5030358;28;20053;-63
2024/02/05 03:23:07;;;;;;;14.13;2.95;;;10.30;99.90;;;;;;5029097;28;20041;-63
2024/02/05 03:25:33;;;;;;;20.77;2.78;;;10.30;99.90;;;;;;5033869;28;20051;-63
2024/02/05 03:28:00;;;;;;;26.23;5.65;;;10.20;99.90;;;;;;5009727;28;20533;-63
2024/02/05 03:30:33;;;;;;;21.58;4.38;;;10.20;99.90;;;;;;5020015;28;20053;-63
2024/02/05 03:33:00;;;;;;;26.40;4.60;;;10.30;99.90;;;;;;5022442;28;20080;-63
2024/02/05 03:35:27;;;;;;;44.78;9.05;;;10.30;99.90;;;;;;5039166;28;20065;-63
2024/02/05 03:37:54;;;;;;;13.40;3.58;;;10.30;99.90;;;;;;5030399;28;20499;-63
2024/02/05 03:40:23;;;;;;;39.03;7.07;;;10.20;99.90;;;;;;5003223;28;20561;-63
2024/02/05 03:42:50;;;;;;;16.00;3.20;;;10.20;99.90;;;;;;5024922;28;20109;-64
2024/02/05 03:45:16;;;;;;;41.83;8.02;;;10.30;99.90;;;;;;5037786;28;20106;-63
2024/02/05 03:47:43;;;;;;;26.40;5.45;;;10.20;99.90;;;;;;5029128;28;20583;-63
2024/02/05 03:50:10;;;;;;;30.95;6.68;;;10.30;99.90;;;;;;5014521;28;20041;-63
2024/02/05 03:52:43;;;;;;;19.20;3.33;;;10.20;99.90;;;;;;5032296;28;20128;-63
2024/02/05 03:55:09;;;;;;;10.32;2.83;;;10.20;99.90;;;;;;5032365;28;20057;-63
2024/02/05 03:57:36;;;;;;;39.25;7.95;;;10.20;99.90;;;;;;5028166;28;20123;-63
2024/02/05 04:00:02;;;;;;;14.10;3.65;;;10.30;99.90;;;;;;5019630;28;20184;-63
2024/02/05 04:02:30;;;;;;;24.83;4.22;;;10.20;99.90;;;;;;5021237;28;20125;-63
2024/02/05 04:04:57;;;;;;;28.30;5.60;;;10.20;99.90;;;;;;5031160;28;20098;-63
2024/02/05 04:07:24;;;;;;;35.20;6.18;;;10.20;99.90;;;;;;5025104;28;20166;-63
2024/02/05 04:09:49;;;;;;;14.98;4.05;;;10.20;99.90;;;;;;5024091;28;20044;-63
2024/02/05 04:12:15;;;;;;;36.85;7.60;;;10.20;99.90;;;;;;5011623;28;20313;-63
2024/02/05 04:14:41;;;;;;;17.55;3.05;;;10.20;99.90;;;;;;5033300;28;20076;-63
2024/02/05 04:17:10;;;;;;;33.70;7.32;;;10.20;99.90;;;;;;5037679;28;20049;-63
2024/02/05 04:19:36;;;;;;;27.45;6.30;;;10.10;99.90;;;;;;5019944;28;20041;-62
2024/02/05 04:22:02;;;;;;;10.82;3.30;;;10.10;99.90;;;;;;5022805;28;20038;-63
2024/02/05 04:24:28;;;;;;;9.00;2.42;;;10.10;99.90;;;;;;5007396;28;20038;-63
2024/02/05 04:26:54;;;;;;;13.93;2.83;;;10.10;99.90;;;;;;5022537;28;20563;-63
2024/02/05 04:29:24;;;;;;;9.63;3.08;;;10.10;99.90;;;;;;5035772;28;20095;-63
2024/02/05 04:31:51;;;;;;;20.38;3.83;;;10.00;99.90;;;;;;5004568;28;20099;-63
2024/02/05 04:34:17;;;;;;;16.83;3.22;;;10.00;99.90;;;;;;5015643;28;20355;-63
2024/02/05 04:36:43;;;;;;;30.08;5.22;;;9.90;99.90;;;;;;5023311;28;20053;-63
2024/02/05 04:39:11;;;;;;;21.88;5.47;;;9.90;99.90;;;;;;5027041;28;20443;-63
2024/02/05 04:41:38;;;;;;;14.30;3.30;;;9.90;99.90;;;;;;5023184;28;20048;-63
2024/02/05 04:44:04;;;;;;;19.15;4.05;;;9.80;99.90;;;;;;4992620;28;20054;-63
2024/02/05 04:46:30;;;;;;;26.35;3.95;;;9.80;99.90;;;;;;5001141;28;20080;-63
2024/02/05 04:48:56;;;;;;;24.08;4.93;;;9.70;99.90;;;;;;5024155;28;20075;-63
2024/02/05 04:51:21;;;;;;;15.95;3.25;;;9.70;99.90;;;;;;5033280;28;20068;-63
2024/02/05 04:53:47;;;;;;;19.05;3.88;;;9.60;99.90;;;;;;5004855;28;20408;-63
2024/02/05 04:56:13;;;;;;;13.07;2.85;;;9.60;99.90;;;;;;5037081;28;20464;-63
2024/02/05 04:58:39;;;;;;;10.15;2.15;;;9.60;99.90;;;;;;5026374;28;20155;-63
2024/02/05 05:01:05;;;;;;;10.65;2.47;;;9.50;99.90;;;;;;5032068;28;20060;-63
2024/02/05 05:03:33;;;;;;;12.38;2.58;;;9.50;99.90;;;;;;5029735;28;20419;-63
2024/02/05 05:05:59;;;;;;;19.77;4.63;;;9.50;99.90;;;;;;5030892;28;20038;-63
2024/02/05 05:08:25;;;;;;;28.88;4.72;;;9.50;99.90;;;;;;5007012;28;20065;-63
2024/02/05 05:10:51;;;;;;;17.95;3.70;;;9.50;99.90;;;;;;5008491;28;20303;-63
2024/02/05 05:13:17;;;;;;;38.17;7.35;;;9.50;99.90;;;;;;5034338;28;20045;-63
2024/02/05 05:15:43;;;;;;;20.67;3.58;;;9.50;99.90;;;;;;5031071;28;20034;-63
2024/02/05 05:18:08;;;;;;;20.85;3.63;;;9.50;99.90;;;;;;5004758;28;20563;-63
2024/02/05 05:20:34;;;;;;;19.40;3.88;;;9.40;99.90;;;;;;5024185;28;20068;-63
2024/02/05 05:23:00;;;;;;;29.08;6.38;;;9.40;99.90;;;;;;5023380;28;20045;-63
2024/02/05 05:25:26;;;;;;;33.70;4.65;;;9.40;99.90;;;;;;5023667;28;20400;-63
2024/02/05 05:27:52;;;;;;;14.52;3.33;;;9.40;99.90;;;;;;5007720;28;20049;-63
2024/02/05 05:30:17;;;;;;;17.10;3.45;;;9.40;99.90;;;;;;5033301;28;20045;-62
2024/02/05 05:32:43;;;;;;;34.10;7.38;;;9.40;99.90;;;;;;5022748;28;20049;-63
2024/02/05 05:35:09;;;;;;;21.35;3.50;;;9.40;99.90;;;;;;5023026;28;20404;-63
2024/02/05 05:37:35;;;;;;;25.05;5.75;;;9.40;99.90;;;;;;5004516;28;20041;-62
2024/02/05 05:40:00;;;;;;;22.10;3.92;;;9.40;99.90;;;;;;5006657;28;20046;-63
2024/02/05 05:42:26;;;;;;;23.80;4.25;;;9.40;99.90;;;;;;5027115;28;20490;-63
2024/02/05 05:44:54;;;;;;;14.18;2.95;;;9.30;99.90;;;;;;5027517;28;20045;-63
2024/02/05 05:47:19;;;;;;;10.27;3.15;;;9.30;99.90;;;;;;5024067;28;20236;-63
2024/02/05 05:49:45;;;;;;;17.77;3.45;;;9.40;99.90;;;;;;5025746;28;20165;-63
2024/02/05 05:52:11;;;;;;;22.38;3.78;;;9.30;99.90;;;;;;5006831;28;20442;-62
2024/02/05 05:54:37;;;;;;;17.90;3.22;;;9.30;99.90;;;;;;5025853;28;20057;-63
2024/02/05 05:57:05;;;;;;;23.55;5.25;;;9.30;99.90;;;;;;5005830;28;20515;-63
2024/02/05 05:59:31;;;;;;;22.52;4.68;;;9.40;99.90;;;;;;5026662;28;20478;-63
2024/02/05 06:01:57;;;;;;;11.15;3.08;;;9.30;99.90;;;;;;5024118;28;20231;-63
2024/02/05 06:04:22;;;;;;;44.97;7.80;;;9.40;99.90;;;;;;5023874;28;20046;-63
2024/02/05 06:06:48;;;;;;;23.05;5.60;;;9.40;99.90;;;;;;5022897;28;20479;-63
2024/02/05 06:09:18;;;;;;;18.52;3.33;;;9.40;99.90;;;;;;5027118;28;20598;-63
2024/02/05 06:11:48;;;;;;;21.90;5.05;;;9.40;99.90;;;;;;5041421;28;20047;-63
2024/02/05 06:14:13;;;;;;;19.03;4.63;;;9.40;99.90;;;;;;5031918;28;20052;-63
2024/02/05 06:16:39;;;;;;;12.85;4.00;;;9.40;99.90;;;;;;5028751;28;20053;-63
2024/02/05 06:19:05;;;;;;;39.88;7.88;;;9.40;99.90;;;;;;5023481;28;20052;-63
2024/02/05 06:21:31;;;;;;;20.50;4.35;;;9.40;99.90;;;;;;5023155;28;20045;-63
2024/02/05 06:23:56;;;;;;;8.85;3.15;;;9.40;99.90;;;;;;5014689;28;20059;-63
2024/02/05 06:26:22;;;;;;;26.17;4.38;;;9.40;99.90;;;;;;5030758;28;20520;-63
2024/02/05 06:28:48;;;;;;;12.85;2.95;;;9.40;99.90;;;;;;5028907;28;20580;-63
2024/02/05 06:31:14;;;;;;;40.92;6.53;;;9.40;99.90;;;;;;5031197;28;20466;-62
2024/02/05 06:33:40;;;;;;;24.38;3.67;;;9.40;99.90;;;;;;5007084;28;20132;-63
2024/02/05 06:36:08;;;;;;;39.25;8.73;;;9.40;99.90;;;;;;5025742;28;20377;-63
2024/02/05 06:38:34;;;;;;;15.10;3.42;;;9.40;99.90;;;;;;5023538;28;20926;-63
2024/02/05 06:41:00;;;;;;;14.25;4.25;;;9.40;99.90;;;;;;5023900;28;20128;-63
2024/02/05 06:43:26;;;;;;;33.85;7.75;;;9.40;99.90;;;;;;5025447;28;20052;-62
2024/02/05 06:45:52;;;;;;;15.98;2.72;;;9.40;99.90;;;;;;5016583;28;20049;-63
2024/02/05 06:48:17;;;;;;;18.00;4.07;;;9.40;99.90;;;;;;5008404;28;20044;-63
2024/02/05 06:50:43;;;;;;;14.40;3.95;;;9.40;99.90;;;;;;5032789;28;20053;-63
2024/02/05 06:53:09;;;;;;;23.13;6.22;;;9.40;99.90;;;;;;5008422;28;20136;-63
2024/02/05 06:55:34;;;;;;;15.32;3.78;;;9.40;99.90;;;;;;5035096;28;20099;-63
2024/02/05 06:58:00;;;;;;;21.10;4.10;;;9.30;99.90;;;;;;5016014;28;20116;-63
2024/02/05 07:00:26;;;;;;;22.33;4.10;;;9.30;99.90;;;;;;5021998;28;20049;-62
2024/02/05 07:02:52;;;;;;;18.20;3.85;;;9.40;99.90;;;;;;5023383;28;20394;-63
2024/02/05 07:05:20;;;;;;;20.73;4.30;;;9.40;99.90;;;;;;4996594;28;20504;-63
2024/02/05 07:07:46;;;;;;;32.15;7.13;;;9.30;99.90;;;;;;5003800;28;20029;-63
2024/02/05 07:10:11;;;;;;;18.40;3.22;;;9.30;99.90;;;;;;5005031;28;20075;-63
2024/02/05 07:12:37;;;;;;;20.40;3.22;;;9.30;99.90;;;;;;5010423;28;20056;-63
2024/02/05 07:15:03;;;;;;;18.38;3.15;;;9.30;99.90;;;;;;5028025;28;20492;-63
2024/02/05 07:17:34;;;;;;;13.77;2.97;;;9.40;99.90;;;;;;5004589;28;20542;-63
2024/02/05 07:20:01;;;;;;;;;;;9.30;99.90;;;;;;5028343;28;20068;-63
2024/02/05 07:22:29;;;;;;;13.63;3.72;;;9.30;99.90;;;;;;5022593;28;19987;-63
2024/02/05 07:24:58;;;;;;;15.60;3.88;;;9.30;99.90;;;;;;5021654;28;20111;-63
2024/02/05 07:27:41;;;;;;;8.13;2.10;;;9.30;99.90;;;;;;5031114;28;20084;-63
2024/02/05 07:30:08;;;;;;;12.50;2.40;;;9.40;99.90;;;;;;5003589;28;20053;-63
2024/02/05 07:32:34;;;;;;;22.88;3.63;;;9.30;99.90;;;;;;5022444;28;20134;-63
2024/02/05 07:35:00;;;;;;;20.30;3.75;;;9.30;99.90;;;;;;5022909;28;20049;-63
2024/02/05 07:37:26;;;;;;;20.17;4.18;;;9.30;99.90;;;;;;5030837;28;20045;-63
2024/02/05 07:39:52;;;;;;;10.52;3.38;;;9.30;99.90;;;;;;5003768;28;20542;-63
2024/02/05 07:42:18;;;;;;;13.52;2.00;;;9.40;99.90;;;;;;5006961;28;20056;-63
2024/02/05 07:44:44;;;;;;;13.35;3.45;;;9.30;99.90;;;;;;5022605;28;20046;-63
2024/02/05 07:47:10;;;;;;;7.32;2.00;;;9.40;99.90;;;;;;5012970;28;20499;-63
2024/02/05 07:49:35;;;;;;;30.30;6.32;;;9.30;99.90;;;;;;5024359;28;20116;-63
2024/02/05 07:52:01;;;;;;;7.15;3.08;;;9.30;99.90;;;;;;5025439;28;20048;-63
2024/02/05 07:54:27;;;;;;;9.65;2.55;;;9.30;99.90;;;;;;5009427;28;20191;-63
2024/02/05 07:56:55;;;;;;;29.02;4.25;;;9.30;99.90;;;;;;5035950;28;20054;-63
2024/02/05 07:59:20;;;;;;;10.63;2.78;;;9.30;99.90;;;;;;5007691;28;20049;-63
2024/02/05 08:01:46;;;;;;;10.02;2.83;;;9.30;99.90;;;;;;5022344;28;20368;-63
2024/02/05 08:04:15;;;;;;;19.45;3.47;;;9.30;99.90;;;;;;5002779;28;21028;-63
2024/02/05 08:06:41;;;;;;;7.00;2.50;;;9.30;99.90;;;;;;5022004;28;20114;-63
2024/02/05 08:09:06;;;;;;;12.40;3.53;;;9.30;99.90;;;;;;5000071;28;20044;-63
2024/02/05 08:11:32;;;;;;;18.35;4.40;;;9.30;99.90;;;;;;5006159;28;20052;-62
2024/02/05 08:13:58;;;;;;;27.23;6.32;;;9.30;99.90;;;;;;5003871;28;20116;-62
2024/02/05 08:16:24;;;;;;;14.10;2.75;;;9.30;99.90;;;;;;5021925;28;20049;-63
2024/02/05 08:18:50;;;;;;;18.50;3.33;;;9.30;99.90;;;;;;5003816;28;20052;-63
2024/02/05 08:21:16;;;;;;;25.20;5.40;;;9.30;99.90;;;;;;5002424;28;20049;-63
2024/02/05 08:23:42;;;;;;;9.50;2.75;;;9.30;99.90;;;;;;5004147;28;20044;-63
2024/02/05 08:26:08;;;;;;;13.82;2.78;;;9.30;99.90;;;;;;5001963;28;20100;-63
2024/02/05 08:28:34;;;;;;;10.07;3.30;;;9.30;99.90;;;;;;5019591;28;20518;-62
2024/02/05 08:31:00;;;;;;;19.83;2.67;;;9.30;99.90;;;;;;5028019;28;20487;-63
2024/02/05 08:33:26;;;;;;;17.85;4.70;;;9.30;99.90;;;;;;5029539;28;20447;-63
2024/02/05 08:35:52;;;;;;;6.55;1.95;;;9.30;99.90;;;;;;5027635;28;20068;-63
2024/02/05 08:38:18;;;;;;;14.27;3.10;;;9.30;99.90;;;;;;5010389;28;20081;-63
2024/02/05 08:40:45;;;;;;;21.00;4.50;;;9.30;99.90;;;;;;5015761;28;20820;-62
2024/02/05 08:43:11;;;;;;;11.70;3.17;;;9.30;99.90;;;;;;5006798;28;20391;-63
2024/02/05 08:45:37;;;;;;;10.38;2.95;;;9.30;99.90;;;;;;5014278;28;20037;-62
2024/02/05 08:48:04;;;;;;;25.25;4.93;;;9.30;99.90;;;;;;5014313;28;20042;-63
2024/02/05 08:50:33;;;;;;;5.43;1.67;;;9.30;99.90;;;;;;5025720;28;20073;-63
2024/02/05 08:53:00;;;;;;;12.07;2.47;;;9.40;99.90;;;;;;5005670;28;20053;-62
2024/02/05 08:55:26;;;;;;;11.18;2.15;;;9.30;99.90;;;;;;5019404;28;20049;-62
2024/02/05 08:57:52;;;;;;;15.90;2.58;;;9.30;99.90;;;;;;5013979;28;20557;-63
2024/02/05 09:00:19;;;;;;;20.58;4.43;;;9.20;99.90;;;;;;5014282;28;20072;-62
2024/02/05 09:02:53;;;;;;;14.45;4.03;;;9.30;99.90;;;;;;5023219;28;20933;-62
2024/02/05 09:05:19;;;;;;;10.57;2.17;;;9.20;99.90;;;;;;5031092;28;20076;-63
2024/02/05 09:07:45;;;;;;;16.08;2.83;;;9.30;99.90;;;;;;5007107;28;20792;-62
2024/02/05 09:10:11;;;;;;;15.43;3.72;;;9.30;99.90;;;;;;5024052;28;20124;-62
2024/02/05 09:12:37;;;;;;;9.02;3.08;;;9.30;99.90;;;;;;5024741;28;20045;-63
2024/02/05 09:15:03;;;;;;;20.80;2.10;;;9.30;99.90;;;;;;5029807;28;20057;-63
2024/02/05 09:17:30;;;;;;;9.45;2.83;;;9.40;99.90;;;;;;5032063;28;20183;-63
2024/02/05 09:19:56;;;;;;;16.85;3.40;;;9.40;99.90;;;;;;5024420;28;20617;-63
2024/02/05 09:22:22;;;;;;;17.38;2.95;;;9.40;99.90;;;;;;5024628;28;20106;-63
2024/02/05 09:24:48;;;;;;;17.60;2.72;;;9.50;99.90;;;;;;5024647;28;20041;-63
2024/02/05 09:27:14;;;;;;;15.50;3.33;;;9.60;99.90;;;;;;5029221;28;20049;-63
2024/02/05 09:29:39;;;;;;;11.05;1.95;;;9.60;99.90;;;;;;5027005;28;20559;-63
2024/02/05 09:32:05;;;;;;;10.43;2.65;;;9.60;99.90;;;;;;5028062;28;20077;-62
2024/02/05 09:34:32;;;;;;;11.20;2.22;;;9.60;99.90;;;;;;4999501;28;20058;-62
2024/02/05 09:36:58;;;;;;;10.95;1.90;;;9.60;99.90;;;;;;4990720;28;20056;-62
2024/02/05 09:39:24;;;;;;;10.85;2.08;;;9.50;99.90;;;;;;5021798;28;20045;-62
2024/02/05 09:41:52;;;;;;;10.85;2.50;;;9.50;99.90;;;;;;5013218;28;20085;-62
2024/02/05 09:44:21;;;;;;;12.73;2.42;;;9.50;99.90;;;;;;5031538;28;20068;-62
2024/02/05 09:46:51;;;;;;;15.18;3.97;;;9.50;99.90;;;;;;5034646;28;20463;-62
2024/02/05 09:49:18;;;;;;;12.18;2.30;;;9.50;99.90;;;;;;5005037;28;20624;-62
2024/02/05 09:51:48;;;;;;;20.40;2.53;;;9.50;99.90;;;;;;5018234;28;20133;-62
2024/02/05 09:54:15;;;;;;;22.13;4.55;;;9.50;99.90;;;;;;5026230;28;20145;-62
2024/02/05 09:56:42;;;;;;;11.80;2.83;;;9.50;99.90;;;;;;5006118;28;20468;-62
2024/02/05 09:59:09;;;;;;;15.55;2.65;;;9.50;99.90;;;;;;5023812;28;20443;-62
2024/02/05 10:01:36;;;;;;;3.47;1.73;;;9.50;99.90;;;;;;5022088;28;20084;-62
2024/02/05 10:04:04;;;;;;;14.32;2.15;;;9.50;99.90;;;;;;5028185;28;20075;-62
2024/02/05 10:06:33;;;;;;;9.25;2.65;;;9.50;99.90;;;;;;5004607;28;20083;-62
2024/02/05 10:09:04;;;;;;;6.43;1.85;;;9.40;99.90;;;;;;5024872;28;20379;-62
2024/02/05 10:11:31;;;;;;;16.63;3.30;;;9.50;99.90;;;;;;5026535;28;20500;-62
2024/02/05 10:13:58;;;;;;;10.05;2.08;;;9.50;99.90;;;;;;5025462;28;20063;-62
2024/02/05 10:16:23;;;;;;;9.90;2.47;;;9.50;99.90;;;;;;5023841;28;20135;-62
2024/02/05 10:18:50;;;;;;;16.05;2.80;;;9.50;99.90;;;;;;5026286;28;20045;-62
2024/02/05 10:21:20;;;;;;;20.90;3.30;;;9.50;99.90;;;;;;5006341;28;20777;-63
2024/02/05 10:23:52;;;;;;;;;;;9.50;99.90;;;;;;5024527;28;20128;-61
2024/02/05 10:26:18;;;;;;;10.05;2.70;;;9.50;99.90;;;;;;5023518;28;19921;-62
2024/02/05 10:28:43;;;;;;;6.88;1.98;;;9.50;99.90;;;;;;5023862;28;20042;-63
2024/02/05 10:31:14;;;;;;;7.75;2.08;;;9.60;99.90;;;;;;5022126;28;20049;-64
2024/02/05 10:33:40;;;;;;;13.52;2.72;;;9.50;99.90;;;;;;5020594;28;20053;-63
2024/02/05 10:36:07;;;;;;;2.30;1.38;;;9.50;99.90;;;;;;5000035;28;20383;-63
2024/02/05 10:38:37;;;;;;;9.40;2.63;;;9.50;99.90;;;;;;5022004;28;20717;-63
2024/02/05 10:41:05;;;;;;;8.10;2.47;;;9.60;99.90;;;;;;5025668;28;20048;-64
2024/02/05 10:43:32;;;;;;;9.15;2.28;;;9.60;99.90;;;;;;5022409;28;20407;-63
2024/02/05 10:45:58;;;;;;;6.38;1.85;;;9.60;99.90;;;;;;5004966;28;20045;-63
2024/02/05 10:48:27;;;;;;;5.60;1.17;;;9.60;99.90;;;;;;5009677;28;20179;-63
2024/02/05 10:50:53;;;;;;;10.13;2.78;;;9.60;99.90;;;;;;5010356;28;20065;-63
2024/02/05 10:53:21;;;;;;;7.80;2.10;;;9.50;99.90;;;;;;5031334;28;20618;-63
2024/02/05 10:55:49;;;;;;;20.27;3.83;;;9.50;99.90;;;;;;5009807;28;20407;-63
2024/02/05 10:58:16;;;;;;;8.95;1.88;;;9.50;99.90;;;;;;5022033;28;20535;-63
2024/02/05 11:00:43;;;;;;;11.40;2.42;;;9.60;99.90;;;;;;5005610;28;20041;-63
2024/02/05 11:03:16;;;;;;;7.10;2.42;;;9.50;99.90;;;;;;5023262;28;20140;-63
2024/02/05 11:05:46;;;;;;;7.45;1.63;;;9.50;99.90;;;;;;5010279;28;20325;-63
2024/02/05 11:08:15;;;;;;;11.55;2.70;;;9.50;99.90;;;;;;5016980;28;20079;-63
2024/02/05 11:10:45;;;;;;;12.17;2.47;;;9.50;99.90;;;;;;5029151;28;20069;-63
2024/02/05 11:13:31;;;;;;;10.90;2.78;;;9.50;99.90;;;;;;5008364;28;20068;-63
2024/02/05 11:15:58;;;;;;;5.40;1.80;;;9.50;99.90;;;;;;5005203;28;20049;-63
2024/02/05 11:18:28;;;;;;;12.13;2.45;;;9.50;99.90;;;;;;5008655;28;20053;-63
2024/02/05 11:20:56;;;;;;;6.10;1.90;;;9.50;99.90;;;;;;5009802;28;20049;-63
2024/02/05 11:23:23;;;;;;;4.97;1.48;;;9.50;99.90;;;;;;5020901;28;20045;-63
2024/02/05 11:25:49;;;;;;;4.93;1.80;;;9.50;99.90;;;;;;5011938;28;20485;-63
2024/02/05 11:28:15;;;;;;;13.02;2.90;;;9.50;99.90;;;;;;5022535;28;20045;-63
2024/02/05 11:30:45;;;;;;;8.40;2.42;;;9.50;99.90;;;;;;5036633;28;20044;-63
2024/02/05 11:33:29;;;;;;;2.83;1.70;;;9.50;99.90;;;;;;5026743;28;20048;-62
2024/02/05 11:35:56;;;;;;;19.98;2.10;;;9.40;99.90;;;;;;5004053;28;20061;-63
2024/02/05 11:38:22;;;;;;;12.35;2.65;;;9.50;99.90;;;;;;4984464;28;20496;-63
2024/02/05 11:40:50;;;;;;;7.85;2.00;;;9.50;99.90;;;;;;4999473;28;20054;-63
2024/02/05 11:43:24;;;;;;;11.80;3.22;;;9.50;99.90;;;;;;5002280;28;20137;-63
2024/02/05 11:45:53;;;;;;;8.48;2.28;;;9.50;99.90;;;;;;5001867;28;20049;-63
2024/02/05 11:48:19;;;;;;;6.38;1.83;;;9.50;99.90;;;;;;5006171;28;20045;-63
2024/02/05 11:50:47;;;;;;;17.17;2.13;;;9.40;99.90;;;;;;5000415;28;20124;-63
2024/02/05 11:53:17;;;;;;;5.43;1.63;;;9.40;99.90;;;;;;4999735;28;20037;-63
2024/02/05 11:55:44;;;;;;;11.30;2.00;;;9.40;99.90;;;;;;5002584;28;20049;-63
2024/02/05 11:58:11;;;;;;;5.07;1.88;;;9.40;99.90;;;;;;4996304;28;20046;-63
2024/02/05 12:00:36;;;;;;;17.38;4.70;;;9.40;99.90;;;;;;4995691;28;20497;-63
2024/02/05 12:03:04;;;;;;;20.55;4.10;;;9.30;99.90;;;;;;5006541;28;20045;-63
2024/02/05 12:05:30;;;;;;;9.18;2.40;;;9.30;99.90;;;;;;5001969;28;20385;-63
2024/02/05 12:08:03;;;;;;;16.42;2.67;;;9.30;99.90;;;;;;5004352;28;20052;-62
2024/02/05 12:10:29;;;;;;;21.67;4.88;;;9.30;99.90;;;;;;5006388;28;20049;-62
2024/02/05 12:12:55;;;;;;;19.08;3.60;;;9.20;99.90;;;;;;5002468;28;20050;-62
2024/02/05 12:15:29;;;;;;;16.60;3.47;;;9.20;99.90;;;;;;5000744;28;20049;-63
2024/02/05 12:18:02;;;;;;;14.95;3.20;;;9.20;99.90;;;;;;5002280;28;20046;-63
2024/02/05 12:20:29;;;;;;;7.07;1.40;;;9.20;99.90;;;;;;4989234;28;20343;-63
2024/02/05 12:22:55;;;;;;;12.88;3.05;;;9.10;99.90;;;;;;4998388;28;20077;-63
2024/02/05 12:25:22;;;;;;;13.52;3.97;;;9.10;99.90;;;;;;5001229;28;20443;-63
2024/02/05 12:27:48;;;;;;;8.07;1.70;;;9.10;99.90;;;;;;4997205;28;20105;-64
2024/02/05 12:30:15;;;;;;;20.40;4.53;;;9.10;99.90;;;;;;5001645;28;20368;-64
2024/02/05 12:32:44;;;;;;;6.72;2.05;;;9.10;99.90;;;;;;4999081;28;20077;-63
2024/02/05 12:35:14;;;;;;;6.70;2.42;;;9.10;99.90;;;;;;5002620;28;20058;-64
2024/02/05 12:37:43;;;;;;;10.80;3.23;;;9.00;99.90;;;;;;5000921;28;20567;-64
2024/02/05 12:40:12;;;;;;;9.52;2.60;;;9.10;99.90;;;;;;4996736;28;20488;-65
2024/02/05 12:42:38;;;;;;;8.68;2.80;;;9.10;99.90;;;;;;5000004;28;20096;-64
2024/02/05 12:45:05;;;;;;;8.20;2.42;;;9.10;99.90;;;;;;4994806;28;20575;-64